createdAt,value
2023-03-03T00:04:54.897Z,0.00
2023-03-03T00:12:28.568Z,-0.10
2023-03-03T00:17:30.530Z,-0.20
2023-03-03T00:20:05.856Z,-0.20
2023-03-03T00:22:40.380Z,-0.30
2023-03-03T00:25:31.081Z,-0.30
2023-03-03T00:28:10.624Z,-0.40
2023-03-03T00:33:24.585Z,-0.40
2023-03-03T00:35:57.629Z,-0.40
2023-03-03T00:43:31.351Z,-0.50
2023-03-03T00:48:34.293Z,-0.60
2023-03-03T00:51:21.911Z,-0.60
2023-03-03T00:53:52.628Z,-0.70
2023-03-03T00:58:53.149Z,-1.20
2023-03-03T01:03:57.449Z,-0.90
2023-03-03T01:06:30.928Z,-1.00
2023-03-03T01:16:32.782Z,-1.30
2023-03-03T01:21:35.640Z,-1.20
2023-03-03T01:26:36.029Z,-1.30
2023-03-03T01:29:05.937Z,-1.30
2023-03-03T01:31:36.508Z,-1.20
2023-03-03T01:36:39.835Z,-1.30
2023-03-03T01:39:10.230Z,-1.30
2023-03-03T01:46:50.837Z,-1.50
2023-03-03T01:49:24.302Z,-1.50
2023-03-03T01:52:00.409Z,-1.60
2023-03-03T01:54:36.112Z,-1.60
2023-03-03T01:57:09.688Z,-0.80
2023-03-03T01:59:43.290Z,-1.60
2023-03-03T02:02:13.798Z,-1.70
2023-03-03T02:07:18.877Z,-1.60
2023-03-03T02:09:54.288Z,-1.60
2023-03-03T02:12:38.496Z,-1.60
2023-03-03T02:15:20.054Z,-1.60
2023-03-03T02:17:52.361Z,-1.60
2023-03-03T02:20:35.104Z,-1.60
2023-03-03T02:23:12.774Z,-1.80
2023-03-03T02:25:50.699Z,-1.90
2023-03-03T02:28:23.915Z,-2.00
2023-03-03T02:38:29.784Z,-2.00
2023-03-03T02:41:06.115Z,-2.00
2023-03-03T03:13:58.768Z,-2.20
2023-03-03T03:51:52.626Z,-3.10
2023-03-03T03:54:26.865Z,-2.50
2023-03-03T04:14:37.435Z,-2.50
2023-03-03T04:29:44.703Z,-3.00
2023-03-03T04:47:25.988Z,-2.80
2023-03-03T04:57:28.362Z,-2.40
2023-03-03T05:20:10.770Z,-2.80
2023-03-03T05:30:17.239Z,-3.00
2023-03-03T05:45:24.452Z,-3.00
2023-03-03T05:47:54.745Z,-3.00
2023-03-03T05:50:25.805Z,-3.00
2023-03-03T05:57:58.206Z,-3.30
2023-03-03T06:00:30.777Z,-3.30
2023-03-03T06:25:42.111Z,-3.00
2023-03-03T06:30:46.021Z,-3.00
2023-03-03T06:53:22.291Z,-2.90
2023-03-03T06:58:24.343Z,-2.80
2023-03-03T07:00:59.917Z,-2.80
2023-03-03T07:03:35.498Z,-2.80
2023-03-03T07:06:17.460Z,-2.70
2023-03-03T07:11:20.860Z,-2.80
2023-03-03T07:13:52.806Z,-2.80
2023-03-03T07:16:29.777Z,-2.80
2023-03-03T07:19:03.639Z,-2.70
2023-03-03T07:21:36.402Z,-2.60
2023-03-03T07:24:22.006Z,-2.40
2023-03-03T07:29:27.057Z,-2.10
2023-03-03T07:32:00.880Z,-2.00
2023-03-03T07:34:41.004Z,-1.90
2023-03-03T07:37:20.194Z,-1.80
2023-03-03T07:42:30.604Z,-1.60
2023-03-03T07:45:27.624Z,-1.50
2023-03-03T07:48:11.049Z,-1.40
2023-03-03T07:53:18.004Z,-1.20
2023-03-03T07:58:25.253Z,-0.80
2023-03-03T08:01:31.023Z,-0.70
2023-03-03T08:04:04.512Z,-0.50
2023-03-03T08:06:41.950Z,-0.50
2023-03-03T08:09:47.892Z,-0.30
2023-03-03T08:12:31.689Z,0.80
2023-03-03T08:15:21.746Z,-0.20
2023-03-03T08:20:52.585Z,0.30
2023-03-03T08:23:23.314Z,0.20
2023-03-03T08:25:54.553Z,0.30
2023-03-03T08:28:25.093Z,0.40
2023-03-03T08:36:18.032Z,0.60
2023-03-03T09:09:06.674Z,2.00
2023-03-03T09:14:13.873Z,2.20
2023-03-03T09:16:54.107Z,2.30
2023-03-03T09:19:27.556Z,2.40
2023-03-03T09:22:14.606Z,2.50
2023-03-03T09:24:45.593Z,2.70
2023-03-03T09:27:20.275Z,2.80
2023-03-03T09:32:32.995Z,3.00
2023-03-03T09:37:40.591Z,3.30
2023-03-03T09:40:35.460Z,3.50
2023-03-03T09:43:12.383Z,3.80
2023-03-03T09:46:02.022Z,4.00
2023-03-03T09:48:47.238Z,4.30
2023-03-03T09:51:36.109Z,4.50
2023-03-03T09:54:22.186Z,4.80
2023-03-03T09:56:59.173Z,5.10
2023-03-03T09:59:43.233Z,5.40
2023-03-03T10:02:32.978Z,5.60
2023-03-03T10:05:30.583Z,5.90
2023-03-03T10:08:24.679Z,6.20
2023-03-03T10:11:11.162Z,6.50
2023-03-03T10:17:00.361Z,7.20
2023-03-03T10:24:47.879Z,7.90
2023-03-03T10:27:34.804Z,8.00
2023-03-03T10:30:10.848Z,8.30
2023-03-03T10:32:52.454Z,8.50
2023-03-03T10:35:35.844Z,8.80
2023-03-03T10:38:35.542Z,9.20
2023-03-03T10:41:18.990Z,9.40
2023-03-03T10:44:10.339Z,9.40
2023-03-03T10:47:03.877Z,9.80
2023-03-03T10:49:45.952Z,9.90
2023-03-03T10:52:30.511Z,10.20
2023-03-03T10:55:32.981Z,10.40
2023-03-03T10:58:26.213Z,10.60
2023-03-03T11:01:06.959Z,10.70
2023-03-03T11:03:58.873Z,14.10
2023-03-03T11:06:37.039Z,10.60
2023-03-03T11:09:16.558Z,10.70
2023-03-03T11:11:55.615Z,10.80
2023-03-03T11:17:07.726Z,11.30
2023-03-03T11:19:52.729Z,11.20
2023-03-03T11:22:37.496Z,11.30
2023-03-03T11:28:20.245Z,12.00
2023-03-03T11:31:05.410Z,12.00
2023-03-03T11:36:16.854Z,12.10
2023-03-03T11:38:59.443Z,12.10
2023-03-03T11:44:13.911Z,12.30
2023-03-03T11:52:04.541Z,12.70
2023-03-03T11:54:41.678Z,12.70
2023-03-03T11:57:21.054Z,12.70
2023-03-03T11:59:59.251Z,12.80
2023-03-03T12:02:53.806Z,13.00
2023-03-03T12:05:41.234Z,13.20
2023-03-03T12:08:23.565Z,13.50
2023-03-03T12:11:02.740Z,13.70
2023-03-03T12:13:42.355Z,13.80
2023-03-03T12:16:18.878Z,13.60
2023-03-03T12:24:25.577Z,14.20
2023-03-03T12:27:05.281Z,13.60
2023-03-03T12:29:51.250Z,13.90
2023-03-03T12:32:35.293Z,13.50
2023-03-03T12:35:12.242Z,13.90
2023-03-03T12:37:57.490Z,14.60
2023-03-03T12:40:32.146Z,14.00
2023-03-03T12:43:23.298Z,14.00
2023-03-03T12:46:02.372Z,14.20
2023-03-03T12:48:41.544Z,14.10
2023-03-03T12:51:32.160Z,14.40
2023-03-03T12:54:26.236Z,13.80
2023-03-03T12:56:58.150Z,14.20
2023-03-03T12:59:41.366Z,14.20
2023-03-03T13:02:41.021Z,14.30
2023-03-03T13:05:23.207Z,14.50
2023-03-03T13:08:06.419Z,14.80
2023-03-03T13:10:46.245Z,14.30
2023-03-03T13:13:20.854Z,17.90
2023-03-03T13:16:05.451Z,15.00
2023-03-03T13:18:55.376Z,15.10
2023-03-03T13:21:29.612Z,14.90
2023-03-03T13:24:10.648Z,14.70
2023-03-03T13:26:47.592Z,15.70
2023-03-03T13:29:23.146Z,14.90
2023-03-03T13:31:58.008Z,14.80
2023-03-03T13:34:39.961Z,14.50
2023-03-03T13:37:16.994Z,14.50
2023-03-03T13:39:57.834Z,14.80
2023-03-03T13:42:35.582Z,14.30
2023-03-03T13:45:15.341Z,15.10
2023-03-03T13:47:51.646Z,15.00
2023-03-03T13:50:28.948Z,15.20
2023-03-03T13:53:19.518Z,15.00
2023-03-03T13:55:56.492Z,14.70
2023-03-03T13:58:38.421Z,14.80
2023-03-03T14:01:17.452Z,14.00
2023-03-03T14:04:02.409Z,14.40
2023-03-03T14:06:33.532Z,14.30
2023-03-03T14:09:21.261Z,14.40
2023-03-03T14:11:59.193Z,14.50
2023-03-03T14:14:49.802Z,14.30
2023-03-03T14:17:29.592Z,14.60
2023-03-03T14:20:13.687Z,14.50
2023-03-03T14:22:49.169Z,14.40
2023-03-03T14:25:19.489Z,14.20
2023-03-03T14:28:04.330Z,14.10
2023-03-03T14:30:41.010Z,14.10
2023-03-03T14:33:27.082Z,13.90
2023-03-03T14:36:16.234Z,13.60
2023-03-03T14:38:51.907Z,13.50
2023-03-03T14:41:25.180Z,13.20
2023-03-03T14:44:02.910Z,12.70
2023-03-03T14:46:41.768Z,12.80
2023-03-03T14:49:19.570Z,13.00
2023-03-03T14:51:51.561Z,12.70
2023-03-03T14:54:29.873Z,12.90
2023-03-03T14:57:10.804Z,12.30
2023-03-03T14:59:42.032Z,12.10
2023-03-03T15:02:32.563Z,12.00
2023-03-03T15:05:25.316Z,12.00
2023-03-03T15:07:57.917Z,11.90
2023-03-03T15:10:37.339Z,11.70
2023-03-03T15:13:30.950Z,11.80
2023-03-03T15:16:13.916Z,11.60
2023-03-03T15:19:22.534Z,11.70
2023-03-03T15:21:59.881Z,11.40
2023-03-03T15:24:37.065Z,10.90
2023-03-03T15:27:13.608Z,11.20
2023-03-03T15:29:53.788Z,11.30
2023-03-03T15:32:31.149Z,11.00
2023-03-03T15:35:13.701Z,10.70
2023-03-03T15:37:50.482Z,10.20
2023-03-03T15:40:27.342Z,10.20
2023-03-03T15:43:05.748Z,10.40
2023-03-03T15:45:42.275Z,9.70
2023-03-03T15:48:31.055Z,9.20
2023-03-03T15:51:14.471Z,9.20
2023-03-03T15:54:09.314Z,9.30
2023-03-03T15:56:43.232Z,9.40
2023-03-03T15:59:46.419Z,8.80
2023-03-03T16:02:21.927Z,9.40
2023-03-03T16:05:00.451Z,9.00
2023-03-03T16:07:48.611Z,8.80
2023-03-03T16:10:25.151Z,8.60
2023-03-03T16:13:05.676Z,7.50
2023-03-03T16:15:57.075Z,8.40
2023-03-03T16:18:35.940Z,8.20
2023-03-03T16:21:31.920Z,8.10
2023-03-03T16:24:18.737Z,7.90
2023-03-03T16:26:57.180Z,7.80
2023-03-03T16:29:38.259Z,7.70
2023-03-03T16:32:14.453Z,7.50
2023-03-03T16:34:57.664Z,7.40
2023-03-03T16:37:34.750Z,7.20
2023-03-03T16:40:17.370Z,7.10
2023-03-03T16:45:27.124Z,6.80
2023-03-03T16:48:11.326Z,6.60
2023-03-03T16:50:47.665Z,6.50
2023-03-03T16:53:27.553Z,6.30
2023-03-03T16:56:07.996Z,6.20
2023-03-03T16:58:50.763Z,6.10
2023-03-03T17:01:30.698Z,6.00
2023-03-03T17:04:03.795Z,5.80
2023-03-03T17:06:46.212Z,5.90
2023-03-03T17:09:45.038Z,5.60
2023-03-03T17:12:42.143Z,5.20
2023-03-03T17:15:27.022Z,5.50
2023-03-03T17:18:01.996Z,5.30
2023-03-03T17:20:39.733Z,5.10
2023-03-03T17:23:34.007Z,5.00
2023-03-03T17:26:26.803Z,5.00
2023-03-03T17:29:11.600Z,4.90
2023-03-03T17:31:47.024Z,4.90
2023-03-03T17:34:30.412Z,4.60
2023-03-03T17:37:14.936Z,4.70
2023-03-03T17:40:15.242Z,4.70
2023-03-03T17:42:52.307Z,4.60
2023-03-03T17:45:30.845Z,4.50
2023-03-03T17:48:20.283Z,5.00
2023-03-03T17:51:38.292Z,4.00
2023-03-03T17:54:21.948Z,4.00
2023-03-03T17:57:00.661Z,4.20
2023-03-03T17:59:58.076Z,4.10
2023-03-03T18:02:45.936Z,4.00
2023-03-03T18:05:41.829Z,3.80
2023-03-03T18:08:27.353Z,3.70
2023-03-03T18:11:25.109Z,3.80
2023-03-03T18:14:22.481Z,3.50
2023-03-03T18:17:21.517Z,3.50
2023-03-03T18:20:11.330Z,3.40
2023-03-03T18:22:46.209Z,3.40
2023-03-03T18:25:18.437Z,3.30
2023-03-03T18:30:27.642Z,3.50
2023-03-03T18:33:16.196Z,3.10
2023-03-03T18:35:51.191Z,3.10
2023-03-03T18:38:35.864Z,2.90
2023-03-03T18:41:08.054Z,2.90
2023-03-03T18:43:56.896Z,2.60
2023-03-03T18:46:50.247Z,1.40
2023-03-03T18:49:20.961Z,2.60
2023-03-03T18:52:18.997Z,2.60
2023-03-03T18:55:19.946Z,2.50
2023-03-03T18:58:29.959Z,2.30
2023-03-03T19:01:02.552Z,2.40
2023-03-03T19:03:37.911Z,2.40
2023-03-03T19:06:10.319Z,2.30
2023-03-03T19:08:57.975Z,2.30
2023-03-03T19:11:40.906Z,2.50
2023-03-03T19:14:35.220Z,2.20
2023-03-03T19:17:34.998Z,2.10
2023-03-03T19:20:12.382Z,1.90
2023-03-03T19:22:48.269Z,1.90
2023-03-03T19:25:26.977Z,1.90
2023-03-03T19:28:17.349Z,1.80
2023-03-03T19:30:58.864Z,1.70
2023-03-03T19:33:40.837Z,1.90
2023-03-03T19:36:21.745Z,1.50
2023-03-03T19:39:03.670Z,1.40
2023-03-03T19:41:55.948Z,1.60
2023-03-03T19:44:37.721Z,1.10
2023-03-03T19:47:11.363Z,1.10
2023-03-03T19:49:58.143Z,1.10
2023-03-03T19:52:36.689Z,1.00
2023-03-03T19:55:29.170Z,0.90
2023-03-03T19:58:14.204Z,0.80
2023-03-03T20:00:46.222Z,0.70
2023-03-03T20:03:43.964Z,0.70
2023-03-03T20:06:27.831Z,0.50
2023-03-03T20:09:04.762Z,0.50
2023-03-03T20:11:49.582Z,0.50
2023-03-03T20:14:34.129Z,0.50
2023-03-03T20:17:30.760Z,0.50
2023-03-03T20:20:08.444Z,0.40
2023-03-03T20:22:48.065Z,0.40
2023-03-03T20:25:28.367Z,0.10
2023-03-03T20:28:06.578Z,0.10
2023-03-03T20:31:01.596Z,0.30
2023-03-03T20:33:48.271Z,0.00
2023-03-03T20:36:27.682Z,-0.10
2023-03-03T20:39:11.479Z,-0.10
2023-03-03T20:41:53.668Z,-0.20
2023-03-03T20:44:33.918Z,-0.20
2023-03-03T20:47:09.722Z,-0.20
2023-03-03T20:50:01.851Z,-0.30
2023-03-03T20:52:43.075Z,-0.40
2023-03-03T20:55:22.086Z,-0.10
2023-03-03T20:58:01.244Z,0.40
2023-03-03T21:00:37.196Z,-0.40
2023-03-03T21:03:16.217Z,-0.30
2023-03-03T21:06:01.206Z,-0.30
2023-03-03T21:08:49.579Z,-0.40
2023-03-03T21:11:21.475Z,-0.60
2023-03-03T21:13:54.195Z,-0.40
2023-03-03T21:16:35.818Z,0.50
2023-03-03T21:19:09.112Z,0.80
2023-03-03T21:21:45.206Z,-0.50
2023-03-03T21:24:19.926Z,-0.50
2023-03-03T21:26:52.763Z,-0.70
2023-03-03T21:29:29.200Z,-0.50
2023-03-03T21:32:00.787Z,-0.60
2023-03-03T21:34:32.657Z,0.30
2023-03-03T21:37:09.799Z,-0.70
2023-03-03T21:39:41.177Z,-0.70
2023-03-03T21:42:14.456Z,-0.80
2023-03-03T21:44:46.803Z,-0.80
2023-03-03T21:47:18.710Z,-0.80
2023-03-03T21:49:50.145Z,-0.90
2023-03-03T21:52:24.935Z,-0.90
2023-03-03T22:07:29.064Z,-1.10
2023-03-03T22:50:14.212Z,-1.50
2023-03-03T23:00:18.687Z,-1.70
2023-03-03T23:07:51.944Z,-1.80
2023-03-03T23:22:56.998Z,-2.10
2023-03-03T23:28:00.467Z,-2.10
2023-03-03T23:38:03.884Z,-2.20
